sensor_id;sensor_type;location;lat;lon;timestamp;P1;durP1;ratioP1;P2;durP2;ratioP2
25657;SDS011;13517;59.320;18.042;2023-04-01T00:00:11;6.05;;;2.13;;
25657;SDS011;13517;59.320;18.042;2023-04-01T00:02:38;4.72;;;2.60;;
25657;SDS011;13517;59.320;18.042;2023-04-01T00:05:03;5.88;;;2.85;;
25657;SDS011;13517;59.320;18.042;2023-04-01T00:07:28;5.15;;;2.17;;
25657;SDS011;13517;59.320;18.042;2023-04-01T00:09:54;4.55;;;2.28;;
25657;SDS011;13517;59.320;18.042;2023-04-01T00:12:20;3.97;;;2.58;;
25657;SDS011;13517;59.320;18.042;2023-04-01T00:14:45;4.10;;;2.15;;
25657;SDS011;13517;59.320;18.042;2023-04-01T00:17:11;6.07;;;2.47;;
25657;SDS011;13517;59.320;18.042;2023-04-01T00:19:36;6.00;;;2.30;;
25657;SDS011;13517;59.320;18.042;2023-04-01T00:22:02;4.05;;;2.25;;
25657;SDS011;13517;59.320;18.042;2023-04-01T00:24:27;4.07;;;1.92;;
25657;SDS011;13517;59.320;18.042;2023-04-01T00:26:52;8.02;;;1.95;;
25657;SDS011;13517;59.320;18.042;2023-04-01T00:29:17;3.65;;;1.95;;
25657;SDS011;13517;59.320;18.042;2023-04-01T00:31:43;8.95;;;2.15;;
25657;SDS011;13517;59.320;18.042;2023-04-01T00:34:08;3.30;;;1.90;;
25657;SDS011;13517;59.320;18.042;2023-04-01T00:36:33;4.40;;;2.55;;
25657;SDS011;13517;59.320;18.042;2023-04-01T00:38:58;4.00;;;2.05;;
25657;SDS011;13517;59.320;18.042;2023-04-01T00:41:24;10.82;;;2.45;;
25657;SDS011;13517;59.320;18.042;2023-04-01T00:43:51;7.63;;;2.67;;
25657;SDS011;13517;59.320;18.042;2023-04-01T00:46:16;6.70;;;2.00;;
25657;SDS011;13517;59.320;18.042;2023-04-01T00:48:43;5.38;;;2.05;;
25657;SDS011;13517;59.320;18.042;2023-04-01T00:51:11;4.93;;;2.00;;
25657;SDS011;13517;59.320;18.042;2023-04-01T00:53:40;3.63;;;2.38;;
25657;SDS011;13517;59.320;18.042;2023-04-01T00:56:13;4.95;;;2.13;;
25657;SDS011;13517;59.320;18.042;2023-04-01T00:58:41;3.80;;;1.92;;
25657;SDS011;13517;59.320;18.042;2023-04-01T01:01:07;3.33;;;1.92;;
25657;SDS011;13517;59.320;18.042;2023-04-01T01:03:33;5.40;;;2.20;;
25657;SDS011;13517;59.320;18.042;2023-04-01T01:11:24;7.70;;;2.30;;
25657;SDS011;13517;59.320;18.042;2023-04-01T01:13:56;4.60;;;2.13;;
25657;SDS011;13517;59.320;18.042;2023-04-01T01:16:25;3.63;;;2.33;;
25657;SDS011;13517;59.320;18.042;2023-04-01T01:32:04;6.80;;;2.60;;
25657;SDS011;13517;59.320;18.042;2023-04-01T01:34:40;6.13;;;1.92;;
25657;SDS011;13517;59.320;18.042;2023-04-01T01:37:08;4.55;;;2.10;;
25657;SDS011;13517;59.320;18.042;2023-04-01T01:39:36;3.60;;;2.08;;
25657;SDS011;13517;59.320;18.042;2023-04-01T01:42:03;7.88;;;2.33;;
25657;SDS011;13517;59.320;18.042;2023-04-01T01:44:29;6.25;;;2.10;;
25657;SDS011;13517;59.320;18.042;2023-04-01T01:46:55;4.95;;;1.95;;
25657;SDS011;13517;59.320;18.042;2023-04-01T01:49:21;3.97;;;2.10;;
25657;SDS011;13517;59.320;18.042;2023-04-01T01:51:47;5.75;;;2.10;;
25657;SDS011;13517;59.320;18.042;2023-04-01T01:54:13;3.88;;;2.15;;
25657;SDS011;13517;59.320;18.042;2023-04-01T01:56:39;7.65;;;2.42;;
25657;SDS011;13517;59.320;18.042;2023-04-01T01:59:07;5.03;;;2.45;;
25657;SDS011;13517;59.320;18.042;2023-04-01T02:01:34;4.75;;;2.13;;
25657;SDS011;13517;59.320;18.042;2023-04-01T02:04:00;3.58;;;1.83;;
25657;SDS011;13517;59.320;18.042;2023-04-01T02:06:28;8.10;;;2.17;;
25657;SDS011;13517;59.320;18.042;2023-04-01T02:08:57;4.47;;;2.15;;
25657;SDS011;13517;59.320;18.042;2023-04-01T02:11:29;3.00;;;1.85;;
25657;SDS011;13517;59.320;18.042;2023-04-01T02:13:57;4.80;;;2.17;;
25657;SDS011;13517;59.320;18.042;2023-04-01T02:16:28;3.25;;;2.00;;
25657;SDS011;13517;59.320;18.042;2023-04-01T02:18:56;4.80;;;2.22;;
25657;SDS011;13517;59.320;18.042;2023-04-01T02:21:23;3.58;;;2.28;;
25657;SDS011;13517;59.320;18.042;2023-04-01T02:23:49;3.60;;;2.03;;
25657;SDS011;13517;59.320;18.042;2023-04-01T02:26:15;4.78;;;2.17;;
25657;SDS011;13517;59.320;18.042;2023-04-01T02:28:41;4.78;;;2.08;;
25657;SDS011;13517;59.320;18.042;2023-04-01T02:31:08;5.07;;;1.88;;
25657;SDS011;13517;59.320;18.042;2023-04-01T02:33:35;3.22;;;1.95;;
25657;SDS011;13517;59.320;18.042;2023-04-01T02:36:01;6.50;;;2.10;;
25657;SDS011;13517;59.320;18.042;2023-04-01T02:38:26;5.93;;;2.20;;
25657;SDS011;13517;59.320;18.042;2023-04-01T02:40:56;4.60;;;2.15;;
25657;SDS011;13517;59.320;18.042;2023-04-01T02:43:21;5.90;;;2.25;;
25657;SDS011;13517;59.320;18.042;2023-04-01T02:45:46;8.20;;;2.45;;
25657;SDS011;13517;59.320;18.042;2023-04-01T02:48:12;5.25;;;2.47;;
25657;SDS011;13517;59.320;18.042;2023-04-01T02:50:38;4.10;;;2.03;;
25657;SDS011;13517;59.320;18.042;2023-04-01T02:53:04;3.35;;;2.10;;
25657;SDS011;13517;59.320;18.042;2023-04-01T02:55:31;4.43;;;2.08;;
25657;SDS011;13517;59.320;18.042;2023-04-01T02:57:56;2.90;;;1.83;;
25657;SDS011;13517;59.320;18.042;2023-04-01T03:00:22;3.50;;;2.15;;
25657;SDS011;13517;59.320;18.042;2023-04-01T03:02:47;4.72;;;2.25;;
25657;SDS011;13517;59.320;18.042;2023-04-01T03:05:12;3.15;;;2.47;;
25657;SDS011;13517;59.320;18.042;2023-04-01T03:07:38;6.47;;;1.90;;
25657;SDS011;13517;59.320;18.042;2023-04-01T03:10:03;5.03;;;2.30;;
25657;SDS011;13517;59.320;18.042;2023-04-01T03:12:28;4.18;;;2.33;;
25657;SDS011;13517;59.320;18.042;2023-04-01T03:14:54;5.53;;;1.95;;
25657;SDS011;13517;59.320;18.042;2023-04-01T03:17:19;5.60;;;2.00;;
25657;SDS011;13517;59.320;18.042;2023-04-01T03:19:44;5.03;;;2.17;;
25657;SDS011;13517;59.320;18.042;2023-04-01T03:22:10;3.25;;;1.80;;
25657;SDS011;13517;59.320;18.042;2023-04-01T03:24:35;5.97;;;2.58;;
25657;SDS011;13517;59.320;18.042;2023-04-01T03:27:01;3.67;;;1.77;;
25657;SDS011;13517;59.320;18.042;2023-04-01T03:29:26;4.70;;;1.60;;
25657;SDS011;13517;59.320;18.042;2023-04-01T03:31:51;3.80;;;2.33;;
25657;SDS011;13517;59.320;18.042;2023-04-01T03:34:16;5.45;;;2.65;;
25657;SDS011;13517;59.320;18.042;2023-04-01T03:36:42;3.97;;;2.35;;
25657;SDS011;13517;59.320;18.042;2023-04-01T03:39:07;3.53;;;2.10;;
25657;SDS011;13517;59.320;18.042;2023-04-01T03:41:34;4.68;;;2.33;;
25657;SDS011;13517;59.320;18.042;2023-04-01T03:44:00;4.30;;;2.10;;
25657;SDS011;13517;59.320;18.042;2023-04-01T03:46:25;3.75;;;2.10;;
25657;SDS011;13517;59.320;18.042;2023-04-01T03:48:51;7.88;;;2.03;;
25657;SDS011;13517;59.320;18.042;2023-04-01T03:51:16;4.10;;;1.77;;
25657;SDS011;13517;59.320;18.042;2023-04-01T03:53:41;6.38;;;2.00;;
25657;SDS011;13517;59.320;18.042;2023-04-01T03:56:07;6.60;;;1.95;;
25657;SDS011;13517;59.320;18.042;2023-04-01T03:58:32;7.53;;;1.85;;
25657;SDS011;13517;59.320;18.042;2023-04-01T04:00:58;6.55;;;2.00;;
25657;SDS011;13517;59.320;18.042;2023-04-01T04:03:23;3.88;;;2.00;;
25657;SDS011;13517;59.320;18.042;2023-04-01T04:05:48;3.53;;;1.63;;
25657;SDS011;13517;59.320;18.042;2023-04-01T04:08:14;3.72;;;1.67;;
25657;SDS011;13517;59.320;18.042;2023-04-01T04:10:39;5.07;;;2.15;;
25657;SDS011;13517;59.320;18.042;2023-04-01T04:13:06;3.63;;;2.22;;
25657;SDS011;13517;59.320;18.042;2023-04-01T04:15:31;6.07;;;2.03;;
25657;SDS011;13517;59.320;18.042;2023-04-01T04:17:56;2.95;;;2.13;;
25657;SDS011;13517;59.320;18.042;2023-04-01T04:20:22;4.03;;;2.20;;
25657;SDS011;13517;59.320;18.042;2023-04-01T04:22:47;6.68;;;2.08;;
25657;SDS011;13517;59.320;18.042;2023-04-01T04:25:12;4.78;;;2.20;;
25657;SDS011;13517;59.320;18.042;2023-04-01T04:27:37;7.07;;;2.22;;
25657;SDS011;13517;59.320;18.042;2023-04-01T04:30:03;4.43;;;2.00;;
25657;SDS011;13517;59.320;18.042;2023-04-01T04:32:30;7.20;;;1.95;;
25657;SDS011;13517;59.320;18.042;2023-04-01T04:34:55;5.18;;;1.88;;
25657;SDS011;13517;59.320;18.042;2023-04-01T04:37:20;7.45;;;2.30;;
25657;SDS011;13517;59.320;18.042;2023-04-01T04:39:46;4.53;;;2.00;;
25657;SDS011;13517;59.320;18.042;2023-04-01T04:42:11;4.78;;;1.80;;
25657;SDS011;13517;59.320;18.042;2023-04-01T04:44:36;3.40;;;1.95;;
25657;SDS011;13517;59.320;18.042;2023-04-01T04:47:02;5.50;;;2.47;;
25657;SDS011;13517;59.320;18.042;2023-04-01T04:49:27;6.55;;;2.53;;
25657;SDS011;13517;59.320;18.042;2023-04-01T04:51:52;7.00;;;2.40;;
25657;SDS011;13517;59.320;18.042;2023-04-01T04:54:17;8.07;;;2.25;;
25657;SDS011;13517;59.320;18.042;2023-04-01T04:56:43;5.07;;;1.85;;
25657;SDS011;13517;59.320;18.042;2023-04-01T04:59:08;4.53;;;2.30;;
25657;SDS011;13517;59.320;18.042;2023-04-01T05:01:33;7.10;;;2.55;;
25657;SDS011;13517;59.320;18.042;2023-04-01T05:03:59;4.95;;;2.17;;
25657;SDS011;13517;59.320;18.042;2023-04-01T05:06:24;6.68;;;2.33;;
25657;SDS011;13517;59.320;18.042;2023-04-01T05:08:50;4.15;;;2.33;;
25657;SDS011;13517;59.320;18.042;2023-04-01T05:11:16;4.38;;;2.03;;
25657;SDS011;13517;59.320;18.042;2023-04-01T05:13:42;4.97;;;2.17;;
25657;SDS011;13517;59.320;18.042;2023-04-01T05:16:12;4.10;;;2.00;;
25657;SDS011;13517;59.320;18.042;2023-04-01T05:18:38;4.28;;;1.80;;
25657;SDS011;13517;59.320;18.042;2023-04-01T05:21:03;5.40;;;2.00;;
25657;SDS011;13517;59.320;18.042;2023-04-01T05:23:30;9.85;;;2.08;;
25657;SDS011;13517;59.320;18.042;2023-04-01T05:25:55;6.78;;;2.08;;
25657;SDS011;13517;59.320;18.042;2023-04-01T05:28:22;4.78;;;2.17;;
25657;SDS011;13517;59.320;18.042;2023-04-01T05:30:47;4.85;;;2.45;;
25657;SDS011;13517;59.320;18.042;2023-04-01T05:33:12;5.57;;;2.20;;
25657;SDS011;13517;59.320;18.042;2023-04-01T05:35:38;6.75;;;1.90;;
25657;SDS011;13517;59.320;18.042;2023-04-01T05:38:04;7.65;;;2.15;;
25657;SDS011;13517;59.320;18.042;2023-04-01T05:40:29;3.75;;;1.80;;
25657;SDS011;13517;59.320;18.042;2023-04-01T05:42:55;6.10;;;1.80;;
25657;SDS011;13517;59.320;18.042;2023-04-01T05:45:20;6.28;;;1.70;;
25657;SDS011;13517;59.320;18.042;2023-04-01T05:47:45;3.78;;;1.70;;
25657;SDS011;13517;59.320;18.042;2023-04-01T05:50:11;6.50;;;1.92;;
25657;SDS011;13517;59.320;18.042;2023-04-01T05:52:37;3.88;;;1.90;;
25657;SDS011;13517;59.320;18.042;2023-04-01T05:55:02;3.40;;;1.65;;
25657;SDS011;13517;59.320;18.042;2023-04-01T05:57:28;5.18;;;1.80;;
25657;SDS011;13517;59.320;18.042;2023-04-01T05:59:53;6.45;;;2.17;;
25657;SDS011;13517;59.320;18.042;2023-04-01T06:02:18;7.22;;;2.00;;
25657;SDS011;13517;59.320;18.042;2023-04-01T06:04:44;6.82;;;1.80;;
25657;SDS011;13517;59.320;18.042;2023-04-01T06:07:17;7.18;;;2.10;;
25657;SDS011;13517;59.320;18.042;2023-04-01T06:09:43;6.70;;;2.03;;
25657;SDS011;13517;59.320;18.042;2023-04-01T06:15:13;3.25;;;1.42;;
25657;SDS011;13517;59.320;18.042;2023-04-01T06:20:16;9.65;;;2.00;;
25657;SDS011;13517;59.320;18.042;2023-04-01T06:31:13;5.70;;;2.00;;
25657;SDS011;13517;59.320;18.042;2023-04-01T06:33:52;2.47;;;1.15;;
25657;SDS011;13517;59.320;18.042;2023-04-01T06:36:42;2.65;;;1.30;;
25657;SDS011;13517;59.320;18.042;2023-04-01T06:39:17;3.17;;;1.33;;
25657;SDS011;13517;59.320;18.042;2023-04-01T06:46:57;3.80;;;1.35;;
25657;SDS011;13517;59.320;18.042;2023-04-01T06:59:43;3.15;;;1.42;;
25657;SDS011;13517;59.320;18.042;2023-04-01T07:04:53;3.30;;;1.00;;
25657;SDS011;13517;59.320;18.042;2023-04-01T07:07:23;3.28;;;1.17;;
25657;SDS011;13517;59.320;18.042;2023-04-01T07:09:52;4.03;;;1.20;;
25657;SDS011;13517;59.320;18.042;2023-04-01T07:12:22;4.55;;;1.40;;
25657;SDS011;13517;59.320;18.042;2023-04-01T07:14:51;2.60;;;1.30;;
25657;SDS011;13517;59.320;18.042;2023-04-01T07:17:20;2.53;;;1.30;;
25657;SDS011;13517;59.320;18.042;2023-04-01T07:19:57;2.28;;;1.30;;
25657;SDS011;13517;59.320;18.042;2023-04-01T07:23:08;5.82;;;1.27;;
25657;SDS011;13517;59.320;18.042;2023-04-01T07:25:13;3.38;;;1.33;;
25657;SDS011;13517;59.320;18.042;2023-04-01T07:27:40;6.55;;;1.45;;
25657;SDS011;13517;59.320;18.042;2023-04-01T07:30:12;5.13;;;1.70;;
25657;SDS011;13517;59.320;18.042;2023-04-01T07:37:41;1.77;;;1.08;;
25657;SDS011;13517;59.320;18.042;2023-04-01T07:40:14;6.82;;;1.23;;
25657;SDS011;13517;59.320;18.042;2023-04-01T07:55:58;2.63;;;1.30;;
25657;SDS011;13517;59.320;18.042;2023-04-01T07:58:25;4.70;;;1.60;;
25657;SDS011;13517;59.320;18.042;2023-04-01T08:08:43;5.45;;;1.45;;
25657;SDS011;13517;59.320;18.042;2023-04-01T08:11:13;2.63;;;1.23;;
25657;SDS011;13517;59.320;18.042;2023-04-01T08:13:45;5.53;;;1.77;;
25657;SDS011;13517;59.320;18.042;2023-04-01T08:16:20;5.22;;;1.75;;
25657;SDS011;13517;59.320;18.042;2023-04-01T08:21:25;7.82;;;1.30;;
25657;SDS011;13517;59.320;18.042;2023-04-01T08:23:52;5.60;;;1.20;;
25657;SDS011;13517;59.320;18.042;2023-04-01T08:26:34;3.70;;;1.50;;
25657;SDS011;13517;59.320;18.042;2023-04-01T08:29:12;2.90;;;1.42;;
25657;SDS011;13517;59.320;18.042;2023-04-01T08:34:09;2.20;;;1.60;;
25657;SDS011;13517;59.320;18.042;2023-04-01T08:36:38;3.53;;;1.27;;
25657;SDS011;13517;59.320;18.042;2023-04-01T08:39:09;4.03;;;1.40;;
25657;SDS011;13517;59.320;18.042;2023-04-01T08:44:36;4.65;;;1.30;;
25657;SDS011;13517;59.320;18.042;2023-04-01T08:57:35;3.78;;;1.08;;
25657;SDS011;13517;59.320;18.042;2023-04-01T09:05:18;1.52;;;1.10;;
25657;SDS011;13517;59.320;18.042;2023-04-01T09:13:36;3.50;;;1.30;;
25657;SDS011;13517;59.320;18.042;2023-04-01T09:23:47;2.28;;;1.10;;
25657;SDS011;13517;59.320;18.042;2023-04-01T09:29:52;3.33;;;1.33;;
25657;SDS011;13517;59.320;18.042;2023-04-01T09:34:30;6.53;;;1.45;;
25657;SDS011;13517;59.320;18.042;2023-04-01T09:44:41;2.60;;;0.95;;
25657;SDS011;13517;59.320;18.042;2023-04-01T09:55:12;2.10;;;0.90;;
25657;SDS011;13517;59.320;18.042;2023-04-01T10:13:32;2.20;;;0.80;;
25657;SDS011;13517;59.320;18.042;2023-04-01T10:21:17;3.60;;;0.88;;
25657;SDS011;13517;59.320;18.042;2023-04-01T10:26:32;2.28;;;0.82;;
25657;SDS011;13517;59.320;18.042;2023-04-01T10:29:20;2.35;;;0.90;;
25657;SDS011;13517;59.320;18.042;2023-04-01T11:01:26;1.17;;;0.43;;
25657;SDS011;13517;59.320;18.042;2023-04-01T11:09:19;4.43;;;0.70;;
25657;SDS011;13517;59.320;18.042;2023-04-01T11:42:00;0.60;;;0.60;;
25657;SDS011;13517;59.320;18.042;2023-04-01T11:44:28;6.25;;;0.90;;
25657;SDS011;13517;59.320;18.042;2023-04-01T11:52:15;5.10;;;0.80;;
25657;SDS011;13517;59.320;18.042;2023-04-01T12:05:33;1.17;;;0.70;;
25657;SDS011;13517;59.320;18.042;2023-04-01T12:08:02;0.57;;;0.55;;
25657;SDS011;13517;59.320;18.042;2023-04-01T12:20:20;0.90;;;0.70;;
25657;SDS011;13517;59.320;18.042;2023-04-01T12:22:59;1.10;;;0.82;;
25657;SDS011;13517;59.320;18.042;2023-04-01T12:30:52;1.73;;;0.95;;
25657;SDS011;13517;59.320;18.042;2023-04-01T12:53:44;1.23;;;0.77;;
25657;SDS011;13517;59.320;18.042;2023-04-01T12:56:14;3.28;;;0.70;;
25657;SDS011;13517;59.320;18.042;2023-04-01T13:06:19;0.65;;;0.50;;
25657;SDS011;13517;59.320;18.042;2023-04-01T13:08:48;0.95;;;0.75;;
25657;SDS011;13517;59.320;18.042;2023-04-01T13:11:20;0.45;;;0.43;;
25657;SDS011;13517;59.320;18.042;2023-04-01T13:13:58;4.72;;;0.60;;
25657;SDS011;13517;59.320;18.042;2023-04-01T13:19:08;1.45;;;0.50;;
25657;SDS011;13517;59.320;18.042;2023-04-01T13:24:09;0.65;;;0.47;;
25657;SDS011;13517;59.320;18.042;2023-04-01T13:37:15;1.20;;;0.60;;
25657;SDS011;13517;59.320;18.042;2023-04-01T13:45:24;2.30;;;0.70;;
25657;SDS011;13517;59.320;18.042;2023-04-01T14:03:04;2.88;;;0.80;;
25657;SDS011;13517;59.320;18.042;2023-04-01T14:05:43;9.35;;;0.88;;
25657;SDS011;13517;59.320;18.042;2023-04-01T14:26:15;5.72;;;1.92;;
25657;SDS011;13517;59.320;18.042;2023-04-01T14:33:46;1.45;;;0.80;;
25657;SDS011;13517;59.320;18.042;2023-04-01T14:49:18;0.70;;;0.60;;
25657;SDS011;13517;59.320;18.042;2023-04-01T14:51:45;1.88;;;0.70;;
25657;SDS011;13517;59.320;18.042;2023-04-01T14:56:41;2.17;;;0.60;;
25657;SDS011;13517;59.320;18.042;2023-04-01T14:59:08;1.65;;;0.63;;
25657;SDS011;13517;59.320;18.042;2023-04-01T15:01:40;0.57;;;0.57;;
25657;SDS011;13517;59.320;18.042;2023-04-01T15:04:15;2.53;;;0.80;;
25657;SDS011;13517;59.320;18.042;2023-04-01T15:09:34;4.20;;;1.13;;
25657;SDS011;13517;59.320;18.042;2023-04-01T15:12:11;4.30;;;1.00;;
25657;SDS011;13517;59.320;18.042;2023-04-01T15:15:22;3.03;;;0.93;;
25657;SDS011;13517;59.320;18.042;2023-04-01T15:22:32;4.00;;;1.05;;
25657;SDS011;13517;59.320;18.042;2023-04-01T15:25:05;0.82;;;0.70;;
25657;SDS011;13517;59.320;18.042;2023-04-01T15:28:01;3.33;;;1.00;;
25657;SDS011;13517;59.320;18.042;2023-04-01T15:33:20;0.65;;;0.60;;
25657;SDS011;13517;59.320;18.042;2023-04-01T15:38:32;1.13;;;0.73;;
25657;SDS011;13517;59.320;18.042;2023-04-01T15:43:40;1.52;;;0.60;;
25657;SDS011;13517;59.320;18.042;2023-04-01T15:48:55;1.77;;;0.73;;
25657;SDS011;13517;59.320;18.042;2023-04-01T16:02:07;3.08;;;1.02;;
25657;SDS011;13517;59.320;18.042;2023-04-01T16:04:40;4.38;;;1.50;;
25657;SDS011;13517;59.320;18.042;2023-04-01T16:15:21;4.15;;;1.17;;
25657;SDS011;13517;59.320;18.042;2023-04-01T16:18:04;2.85;;;1.50;;
25657;SDS011;13517;59.320;18.042;2023-04-01T16:23:11;2.85;;;1.08;;
25657;SDS011;13517;59.320;18.042;2023-04-01T16:25:39;2.22;;;0.95;;
25657;SDS011;13517;59.320;18.042;2023-04-01T16:28:23;3.13;;;1.30;;
25657;SDS011;13517;59.320;18.042;2023-04-01T16:41:31;3.75;;;1.30;;
25657;SDS011;13517;59.320;18.042;2023-04-01T16:43:58;7.40;;;1.70;;
25657;SDS011;13517;59.320;18.042;2023-04-01T16:51:46;4.85;;;1.60;;
25657;SDS011;13517;59.320;18.042;2023-04-01T16:56:52;5.85;;;1.23;;
25657;SDS011;13517;59.320;18.042;2023-04-01T17:00:23;11.48;;;1.52;;
25657;SDS011;13517;59.320;18.042;2023-04-01T17:02:14;4.53;;;1.33;;
25657;SDS011;13517;59.320;18.042;2023-04-01T17:04:46;16.50;;;3.60;;
25657;SDS011;13517;59.320;18.042;2023-04-01T17:07:29;3.17;;;1.10;;
25657;SDS011;13517;59.320;18.042;2023-04-01T17:17:43;9.32;;;2.90;;
25657;SDS011;13517;59.320;18.042;2023-04-01T17:22:55;4.85;;;1.58;;
25657;SDS011;13517;59.320;18.042;2023-04-01T17:25:37;4.10;;;1.60;;
25657;SDS011;13517;59.320;18.042;2023-04-01T17:46:01;7.45;;;1.85;;
25657;SDS011;13517;59.320;18.042;2023-04-01T17:48:44;11.18;;;2.60;;
25657;SDS011;13517;59.320;18.042;2023-04-01T17:51:26;8.50;;;1.70;;
25657;SDS011;13517;59.320;18.042;2023-04-01T18:11:58;6.30;;;1.83;;
25657;SDS011;13517;59.320;18.042;2023-04-01T18:22:25;8.50;;;2.25;;
25657;SDS011;13517;59.320;18.042;2023-04-01T18:28:09;9.95;;;2.22;;
25657;SDS011;13517;59.320;18.042;2023-04-01T18:30:35;10.20;;;3.05;;
25657;SDS011;13517;59.320;18.042;2023-04-01T18:35:47;9.68;;;2.40;;
25657;SDS011;13517;59.320;18.042;2023-04-01T18:40:50;13.57;;;3.97;;
25657;SDS011;13517;59.320;18.042;2023-04-01T18:45:58;7.85;;;2.38;;
25657;SDS011;13517;59.320;18.042;2023-04-01T18:51:16;10.93;;;2.40;;
25657;SDS011;13517;59.320;18.042;2023-04-01T18:56:37;11.02;;;2.15;;
25657;SDS011;13517;59.320;18.042;2023-04-01T19:01:33;9.68;;;2.60;;
25657;SDS011;13517;59.320;18.042;2023-04-01T19:06:53;9.88;;;2.28;;
25657;SDS011;13517;59.320;18.042;2023-04-01T19:10:11;10.55;;;2.78;;
25657;SDS011;13517;59.320;18.042;2023-04-01T19:12:27;12.20;;;2.13;;
25657;SDS011;13517;59.320;18.042;2023-04-01T19:17:26;15.00;;;2.67;;
25657;SDS011;13517;59.320;18.042;2023-04-01T19:25:09;9.90;;;2.70;;
25657;SDS011;13517;59.320;18.042;2023-04-01T19:27:41;8.68;;;2.30;;
25657;SDS011;13517;59.320;18.042;2023-04-01T19:35:27;11.52;;;2.20;;
25657;SDS011;13517;59.320;18.042;2023-04-01T19:37:59;14.35;;;1.88;;
25657;SDS011;13517;59.320;18.042;2023-04-01T19:40:32;11.80;;;2.40;;
25657;SDS011;13517;59.320;18.042;2023-04-01T19:45:52;18.52;;;2.95;;
25657;SDS011;13517;59.320;18.042;2023-04-01T19:51:02;9.70;;;2.13;;
25657;SDS011;13517;59.320;18.042;2023-04-01T19:53:34;19.33;;;2.72;;
25657;SDS011;13517;59.320;18.042;2023-04-01T19:56:22;5.35;;;1.92;;
25657;SDS011;13517;59.320;18.042;2023-04-01T20:08:45;13.95;;;1.73;;
25657;SDS011;13517;59.320;18.042;2023-04-01T20:11:28;7.03;;;1.65;;
25657;SDS011;13517;59.320;18.042;2023-04-01T20:16:20;16.45;;;2.33;;
25657;SDS011;13517;59.320;18.042;2023-04-01T20:18:59;13.80;;;2.30;;
25657;SDS011;13517;59.320;18.042;2023-04-01T20:21:44;10.25;;;2.83;;
25657;SDS011;13517;59.320;18.042;2023-04-01T20:26:40;16.67;;;3.35;;
25657;SDS011;13517;59.320;18.042;2023-04-01T20:31:41;18.23;;;2.28;;
25657;SDS011;13517;59.320;18.042;2023-04-01T20:42:29;16.98;;;2.60;;
25657;SDS011;13517;59.320;18.042;2023-04-01T20:52:42;14.98;;;5.10;;
25657;SDS011;13517;59.320;18.042;2023-04-01T21:05:49;9.02;;;2.15;;
25657;SDS011;13517;59.320;18.042;2023-04-01T21:25:59;12.38;;;1.80;;
25657;SDS011;13517;59.320;18.042;2023-04-01T21:31:01;15.02;;;2.08;;
25657;SDS011;13517;59.320;18.042;2023-04-01T21:33:41;12.25;;;2.50;;
25657;SDS011;13517;59.320;18.042;2023-04-01T21:38:43;15.85;;;3.13;;
25657;SDS011;13517;59.320;18.042;2023-04-01T21:43:48;17.92;;;2.10;;
25657;SDS011;13517;59.320;18.042;2023-04-01T21:46:26;14.88;;;2.17;;
25657;SDS011;13517;59.320;18.042;2023-04-01T22:07:17;12.38;;;1.73;;
25657;SDS011;13517;59.320;18.042;2023-04-01T22:22:49;12.32;;;2.10;;
25657;SDS011;13517;59.320;18.042;2023-04-01T22:25:19;6.82;;;1.92;;
25657;SDS011;13517;59.320;18.042;2023-04-01T22:27:48;14.15;;;2.47;;
25657;SDS011;13517;59.320;18.042;2023-04-01T22:32:50;12.57;;;2.03;;
25657;SDS011;13517;59.320;18.042;2023-04-01T22:35:21;11.45;;;2.15;;
25657;SDS011;13517;59.320;18.042;2023-04-01T22:40:45;11.82;;;1.75;;
25657;SDS011;13517;59.320;18.042;2023-04-01T22:43:13;22.60;;;1.85;;
25657;SDS011;13517;59.320;18.042;2023-04-01T22:50:40;8.88;;;2.25;;
25657;SDS011;13517;59.320;18.042;2023-04-01T22:55:37;11.00;;;3.72;;
25657;SDS011;13517;59.320;18.042;2023-04-01T22:58:04;12.05;;;2.38;;
25657;SDS011;13517;59.320;18.042;2023-04-01T23:00:42;10.05;;;2.40;;
25657;SDS011;13517;59.320;18.042;2023-04-01T23:05:53;8.30;;;1.73;;
25657;SDS011;13517;59.320;18.042;2023-04-01T23:10:56;10.88;;;1.77;;
25657;SDS011;13517;59.320;18.042;2023-04-01T23:13:24;12.82;;;1.67;;
25657;SDS011;13517;59.320;18.042;2023-04-01T23:15:52;7.03;;;1.83;;
25657;SDS011;13517;59.320;18.042;2023-04-01T23:18:27;10.18;;;1.45;;
25657;SDS011;13517;59.320;18.042;2023-04-01T23:21:00;13.77;;;2.30;;
25657;SDS011;13517;59.320;18.042;2023-04-01T23:23:30;15.30;;;5.07;;
25657;SDS011;13517;59.320;18.042;2023-04-01T23:31:49;12.43;;;2.28;;
25657;SDS011;13517;59.320;18.042;2023-04-01T23:33:55;8.73;;;1.70;;
25657;SDS011;13517;59.320;18.042;2023-04-01T23:36:21;8.32;;;1.90;;
25657;SDS011;13517;59.320;18.042;2023-04-01T23:38:47;7.50;;;1.65;;
25657;SDS011;13517;59.320;18.042;2023-04-01T23:41:17;12.23;;;2.10;;
25657;SDS011;13517;59.320;18.042;2023-04-01T23:43:45;14.43;;;2.20;;
25657;SDS011;13517;59.320;18.042;2023-04-01T23:46:14;8.27;;;1.63;;
25657;SDS011;13517;59.320;18.042;2023-04-01T23:48:40;13.40;;;2.63;;
25657;SDS011;13517;59.320;18.042;2023-04-01T23:51:48;16.40;;;3.25;;
25657;SDS011;13517;59.320;18.042;2023-04-01T23:54:02;10.07;;;1.98;;
25657;SDS011;13517;59.320;18.042;2023-04-01T23:57:02;8.65;;;1.88;;
25657;SDS011;13517;59.320;18.042;2023-04-01T23:59:23;10.95;;;1.75;;
